createdAt,value
2018-03-20T00:00:45.567Z,11.97
2018-03-20T00:03:13.097Z,11.43
2018-03-20T00:05:40.620Z,11.70
2018-03-20T00:08:08.142Z,11.53
2018-03-20T00:10:35.688Z,11.03
2018-03-20T00:13:03.248Z,10.93
2018-03-20T00:15:30.749Z,11.90
2018-03-20T00:17:59.155Z,11.40
2018-03-20T00:20:26.682Z,11.77
2018-03-20T00:22:54.402Z,10.73
2018-03-20T00:25:22.814Z,11.00
2018-03-20T00:27:50.411Z,11.30
2018-03-20T00:30:18.115Z,11.37
2018-03-20T00:32:45.608Z,10.53
2018-03-20T00:35:13.223Z,9.93
2018-03-20T00:37:40.757Z,10.83
2018-03-20T00:40:08.320Z,9.97
2018-03-20T00:42:35.868Z,10.03
2018-03-20T00:45:03.418Z,10.23
2018-03-20T00:47:30.929Z,10.30
2018-03-20T00:49:58.417Z,9.70
2018-03-20T00:52:25.999Z,10.07
2018-03-20T00:54:53.552Z,10.77
2018-03-20T00:57:21.060Z,10.30
2018-03-20T00:59:48.570Z,9.40
2018-03-20T01:02:16.076Z,11.47
2018-03-20T01:04:43.614Z,9.40
2018-03-20T01:07:11.152Z,10.90
2018-03-20T01:09:38.732Z,10.20
2018-03-20T01:12:06.304Z,9.23
2018-03-20T01:14:33.809Z,10.53
2018-03-20T01:17:01.351Z,10.50
2018-03-20T01:19:28.909Z,10.57
2018-03-20T01:21:56.465Z,10.43
2018-03-20T01:24:23.994Z,9.97
2018-03-20T01:26:51.588Z,9.33
2018-03-20T01:29:19.108Z,11.43
2018-03-20T01:31:46.637Z,9.90
2018-03-20T01:34:14.172Z,9.23
2018-03-20T01:36:41.730Z,10.13
2018-03-20T01:39:09.285Z,10.13
2018-03-20T01:41:36.789Z,10.47
2018-03-20T01:44:04.407Z,10.13
2018-03-20T01:46:31.952Z,9.63
2018-03-20T01:48:59.460Z,9.80
2018-03-20T01:51:26.949Z,9.67
2018-03-20T01:53:54.497Z,9.67
2018-03-20T01:56:22.025Z,9.67
2018-03-20T01:58:49.558Z,9.73
2018-03-20T02:01:17.065Z,8.80
2018-03-20T02:03:44.591Z,9.20
2018-03-20T02:06:12.121Z,8.97
2018-03-20T02:08:39.650Z,8.90
2018-03-20T02:11:07.169Z,9.53
2018-03-20T02:13:34.708Z,9.10
2018-03-20T02:16:02.223Z,8.87
2018-03-20T02:18:29.729Z,9.03
2018-03-20T02:20:57.244Z,8.30
2018-03-20T02:23:24.784Z,7.90
2018-03-20T02:25:52.350Z,8.43
2018-03-20T02:28:19.914Z,8.73
2018-03-20T02:30:47.452Z,8.80
2018-03-20T02:33:14.972Z,8.13
2018-03-20T02:35:42.496Z,9.63
2018-03-20T02:38:10.051Z,8.50
2018-03-20T02:40:37.571Z,8.43
2018-03-20T02:43:05.082Z,8.20
2018-03-20T02:45:32.569Z,7.77
2018-03-20T02:48:00.193Z,8.27
2018-03-20T02:50:28.166Z,8.20
2018-03-20T02:52:55.742Z,7.80
2018-03-20T02:55:23.346Z,7.50
2018-03-20T02:57:50.873Z,7.40
2018-03-20T03:00:18.391Z,7.80
2018-03-20T03:02:45.910Z,7.30
2018-03-20T03:05:13.458Z,7.03
2018-03-20T03:07:40.963Z,7.33
2018-03-20T03:10:08.491Z,7.87
2018-03-20T03:12:35.996Z,7.27
2018-03-20T03:15:03.570Z,8.07
2018-03-20T03:17:31.102Z,7.50
2018-03-20T03:19:58.632Z,7.67
2018-03-20T03:22:26.148Z,6.63
2018-03-20T03:24:53.653Z,7.87
2018-03-20T03:27:21.205Z,7.07
2018-03-20T03:29:48.771Z,6.50
2018-03-20T03:32:16.285Z,6.57
2018-03-20T03:34:43.841Z,6.77
2018-03-20T03:37:11.336Z,6.13
2018-03-20T03:39:38.881Z,6.97
2018-03-20T03:42:06.391Z,6.50
2018-03-20T03:44:33.888Z,6.47
2018-03-20T03:47:01.452Z,7.37
2018-03-20T03:49:28.944Z,6.87
2018-03-20T03:51:56.468Z,7.20
2018-03-20T03:54:24.008Z,7.40
2018-03-20T03:56:51.509Z,7.17
2018-03-20T03:59:19.004Z,7.90
2018-03-20T04:01:46.527Z,7.70
2018-03-20T04:04:14.043Z,7.40
2018-03-20T04:06:41.543Z,8.00
2018-03-20T04:09:09.119Z,7.40
2018-03-20T04:11:36.631Z,8.47
2018-03-20T04:14:04.156Z,7.73
2018-03-20T04:16:31.695Z,8.40
2018-03-20T04:18:59.224Z,8.63
2018-03-20T04:21:26.775Z,7.87
2018-03-20T04:23:54.287Z,8.97
2018-03-20T04:26:21.811Z,8.50
2018-03-20T04:28:49.364Z,8.40
2018-03-20T04:31:16.905Z,8.63
2018-03-20T04:33:44.444Z,8.83
2018-03-20T04:36:11.937Z,9.67
2018-03-20T04:38:39.492Z,8.87
2018-03-20T04:41:07.016Z,8.80
2018-03-20T04:43:34.517Z,8.83
2018-03-20T04:46:02.019Z,9.73
2018-03-20T04:48:29.590Z,9.47
2018-03-20T04:50:57.088Z,8.67
2018-03-20T04:53:24.614Z,9.60
2018-03-20T04:55:52.142Z,9.50
2018-03-20T04:58:19.691Z,9.40
2018-03-20T05:00:47.200Z,9.93
2018-03-20T05:03:14.737Z,9.63
2018-03-20T05:05:42.260Z,9.80
2018-03-20T05:08:09.803Z,9.77
2018-03-20T05:10:37.316Z,10.37
2018-03-20T05:13:05.687Z,9.87
2018-03-20T05:15:33.249Z,10.13
2018-03-20T05:18:00.772Z,9.73
2018-03-20T05:20:33.931Z,11.40
2018-03-20T05:23:06.988Z,10.30
2018-03-20T05:25:34.546Z,11.40
2018-03-20T05:28:02.071Z,12.73
2018-03-20T05:30:29.657Z,12.73
2018-03-20T05:32:57.225Z,12.67
2018-03-20T05:35:24.805Z,13.13
2018-03-20T05:37:52.381Z,14.53
2018-03-20T05:40:19.896Z,15.47
2018-03-20T05:42:47.453Z,14.53
2018-03-20T05:45:14.964Z,16.53
2018-03-20T05:47:42.506Z,14.53
2018-03-20T05:53:19.877Z,17.07
2018-03-20T05:55:47.388Z,16.90
2018-03-20T05:58:14.920Z,17.13
2018-03-20T06:00:42.500Z,16.77
2018-03-20T06:03:10.061Z,17.30
2018-03-20T06:05:37.611Z,18.30
2018-03-20T06:08:05.171Z,17.83
2018-03-20T06:10:32.735Z,17.63
2018-03-20T06:13:01.149Z,20.43
2018-03-20T06:15:28.731Z,19.17
2018-03-20T06:17:56.295Z,20.50
2018-03-20T06:20:24.343Z,20.10
2018-03-20T06:22:51.865Z,20.73
2018-03-20T06:25:19.631Z,21.77
2018-03-20T06:27:47.184Z,20.30
2018-03-20T06:30:14.723Z,21.90
2018-03-20T06:32:42.242Z,22.57
2018-03-20T06:35:09.768Z,22.87
2018-03-20T06:37:37.297Z,22.47
2018-03-20T06:40:04.863Z,23.33
2018-03-20T06:42:32.516Z,26.20
2018-03-20T06:45:00.067Z,26.47
2018-03-20T06:47:27.578Z,23.87
2018-03-20T06:49:55.139Z,26.10
2018-03-20T06:52:22.658Z,28.47
2018-03-20T06:54:50.169Z,27.57
2018-03-20T06:57:17.703Z,26.70
2018-03-20T06:59:45.221Z,27.87
2018-03-20T07:02:12.729Z,24.90
2018-03-20T07:04:40.250Z,25.77
2018-03-20T07:07:07.763Z,26.10
2018-03-20T07:09:35.288Z,25.90
2018-03-20T07:12:02.808Z,24.47
2018-03-20T07:14:30.335Z,23.20
2018-03-20T07:16:57.849Z,24.43
2018-03-20T07:19:25.369Z,24.20
2018-03-20T07:21:52.905Z,23.33
2018-03-20T07:24:20.439Z,22.20
2018-03-20T07:26:48.052Z,21.97
2018-03-20T07:29:15.631Z,21.67
2018-03-20T07:31:43.178Z,20.03
2018-03-20T07:34:10.771Z,21.57
2018-03-20T07:36:38.366Z,20.77
2018-03-20T07:39:05.923Z,20.13
2018-03-20T07:41:33.534Z,20.70
2018-03-20T07:44:01.064Z,19.50
2018-03-20T07:46:28.637Z,19.60
2018-03-20T07:48:56.194Z,20.37
2018-03-20T07:51:23.764Z,20.07
2018-03-20T07:53:51.306Z,20.63
2018-03-20T07:56:18.839Z,19.70
2018-03-20T07:58:46.395Z,20.13
2018-03-20T08:01:13.952Z,19.47
2018-03-20T08:03:41.488Z,18.27
2018-03-20T08:06:09.012Z,18.43
2018-03-20T08:08:36.517Z,18.70
2018-03-20T08:11:04.041Z,16.93
2018-03-20T08:13:31.565Z,17.17
2018-03-20T08:15:59.130Z,18.47
2018-03-20T08:18:26.705Z,17.50
2018-03-20T08:20:54.212Z,16.63
2018-03-20T08:23:21.730Z,16.07
2018-03-20T08:25:49.262Z,17.37
2018-03-20T08:28:16.831Z,14.70
2018-03-20T08:30:44.347Z,12.90
2018-03-20T08:33:11.869Z,13.53
2018-03-20T08:35:39.399Z,13.23
2018-03-20T08:38:06.958Z,11.87
2018-03-20T08:40:34.496Z,13.60
2018-03-20T08:43:02.017Z,11.87
2018-03-20T08:45:29.541Z,8.67
2018-03-20T08:47:57.068Z,11.70
2018-03-20T08:50:24.582Z,9.80
2018-03-20T08:52:52.104Z,9.87
2018-03-20T08:55:19.629Z,10.07
2018-03-20T08:57:47.140Z,8.80
2018-03-20T09:00:14.637Z,8.37
2018-03-20T09:02:42.158Z,9.73
2018-03-20T09:05:09.693Z,9.83
2018-03-20T09:07:37.192Z,8.23
2018-03-20T09:10:04.686Z,7.47
2018-03-20T09:12:32.250Z,7.87
2018-03-20T09:14:59.769Z,7.27
2018-03-20T09:17:27.282Z,7.63
2018-03-20T09:19:54.790Z,6.57
2018-03-20T09:22:22.327Z,7.10
2018-03-20T09:24:49.851Z,7.00
2018-03-20T09:27:17.354Z,6.23
2018-03-20T09:29:44.858Z,5.87
2018-03-20T09:32:12.396Z,6.43
2018-03-20T09:34:39.901Z,6.00
2018-03-20T09:37:07.415Z,5.80
2018-03-20T09:39:34.924Z,6.30
2018-03-20T09:42:02.459Z,6.00
2018-03-20T09:44:29.981Z,6.73
2018-03-20T09:46:57.492Z,6.53
2018-03-20T09:49:25.037Z,6.47
2018-03-20T09:51:52.528Z,6.30
2018-03-20T09:54:20.048Z,6.00
2018-03-20T09:56:47.560Z,6.70
2018-03-20T09:59:15.084Z,6.57
2018-03-20T10:01:42.585Z,5.93
2018-03-20T10:04:10.096Z,5.87
2018-03-20T10:06:37.640Z,6.50
2018-03-20T10:09:05.161Z,5.60
2018-03-20T10:11:32.677Z,6.37
2018-03-20T10:14:00.209Z,5.13
2018-03-20T10:16:27.738Z,5.93
2018-03-20T10:18:55.249Z,6.03
2018-03-20T10:21:22.756Z,6.53
2018-03-20T10:23:50.269Z,5.43
2018-03-20T10:26:17.831Z,5.90
2018-03-20T10:28:45.307Z,5.93
2018-03-20T10:31:12.835Z,6.23
2018-03-20T10:33:40.335Z,5.70
2018-03-20T10:36:08.292Z,5.17
2018-03-20T10:38:35.808Z,5.53
2018-03-20T10:41:03.319Z,5.37
2018-03-20T10:43:31.058Z,5.57
2018-03-20T10:45:58.552Z,5.30
2018-03-20T10:48:26.053Z,4.60
2018-03-20T10:50:53.550Z,5.27
2018-03-20T10:53:21.076Z,4.60
2018-03-20T10:55:48.621Z,5.60
2018-03-20T10:58:16.112Z,5.03
2018-03-20T11:00:48.416Z,5.00
2018-03-20T11:03:15.981Z,4.73
2018-03-20T11:05:43.489Z,5.80
2018-03-20T11:08:11.055Z,4.50
2018-03-20T11:10:38.594Z,4.67
2018-03-20T11:13:06.273Z,4.57
2018-03-20T11:15:33.785Z,4.40
2018-03-20T11:18:01.285Z,3.93
2018-03-20T11:20:28.794Z,5.00
2018-03-20T11:22:56.359Z,4.50
2018-03-20T11:25:23.877Z,4.40
2018-03-20T11:27:51.415Z,4.70
2018-03-20T11:30:18.979Z,4.47
2018-03-20T11:32:46.524Z,4.37
2018-03-20T11:35:14.024Z,3.70
2018-03-20T11:37:41.551Z,3.97
2018-03-20T11:40:09.124Z,3.90
2018-03-20T11:42:36.645Z,4.20
2018-03-20T11:45:04.137Z,3.67
2018-03-20T11:47:31.694Z,3.90
2018-03-20T11:49:59.198Z,4.07
2018-03-20T11:52:26.707Z,3.90
2018-03-20T11:54:54.236Z,4.87
2018-03-20T11:57:21.707Z,4.03
2018-03-20T11:59:49.232Z,2.97
2018-03-20T12:02:17.214Z,3.77
2018-03-20T12:04:44.757Z,4.27
2018-03-20T12:07:12.276Z,3.50
2018-03-20T12:09:46.344Z,3.50
2018-03-20T12:12:13.876Z,3.00
2018-03-20T12:14:41.389Z,3.40
2018-03-20T12:17:08.921Z,3.17
2018-03-20T12:19:36.475Z,3.47
2018-03-20T12:22:03.949Z,2.73
2018-03-20T12:24:31.468Z,3.33
2018-03-20T12:26:58.976Z,3.53
2018-03-20T12:29:26.489Z,2.90
2018-03-20T12:31:54.011Z,2.50
2018-03-20T12:34:22.249Z,3.50
2018-03-20T12:36:49.775Z,3.23
2018-03-20T12:39:17.304Z,2.83
2018-03-20T12:41:44.817Z,2.90
2018-03-20T12:44:12.349Z,2.73
2018-03-20T12:46:40.643Z,3.00
2018-03-20T12:49:08.146Z,2.67
2018-03-20T12:51:35.666Z,2.70
2018-03-20T12:54:03.141Z,2.40
2018-03-20T12:56:30.661Z,2.33
2018-03-20T12:58:58.148Z,2.53
2018-03-20T13:01:25.664Z,2.70
2018-03-20T13:03:53.246Z,2.20
2018-03-20T13:06:20.759Z,2.87
2018-03-20T13:08:48.331Z,2.77
2018-03-20T13:11:15.865Z,3.60
2018-03-20T13:13:43.435Z,3.40
2018-03-20T13:16:10.919Z,2.43
2018-03-20T13:18:38.517Z,2.73
2018-03-20T13:21:06.017Z,2.57
2018-03-20T13:23:33.542Z,2.67
2018-03-20T13:26:01.103Z,2.97
2018-03-20T13:28:28.648Z,2.70
2018-03-20T13:30:56.169Z,3.07
2018-03-20T13:33:23.683Z,2.97
2018-03-20T13:35:51.543Z,2.57
2018-03-20T13:38:19.115Z,2.60
2018-03-20T13:40:46.657Z,2.67
2018-03-20T13:43:14.185Z,2.50
2018-03-20T13:45:41.690Z,2.93
2018-03-20T13:48:09.225Z,2.63
2018-03-20T13:50:36.740Z,2.43
2018-03-20T13:53:05.168Z,2.47
2018-03-20T13:55:32.678Z,2.40
2018-03-20T13:58:00.204Z,2.00
2018-03-20T14:00:28.627Z,2.30
2018-03-20T14:02:56.156Z,2.40
2018-03-20T14:05:24.392Z,2.10
2018-03-20T14:07:51.891Z,2.07
2018-03-20T14:10:19.425Z,2.83
2018-03-20T14:12:46.959Z,2.93
2018-03-20T14:15:14.456Z,2.20
2018-03-20T14:17:41.974Z,2.53
2018-03-20T14:20:09.480Z,2.20
2018-03-20T14:22:36.988Z,2.00
2018-03-20T14:25:04.499Z,2.07
2018-03-20T14:27:31.980Z,2.20
2018-03-20T14:29:59.527Z,2.03
2018-03-20T14:32:27.048Z,2.13
2018-03-20T14:34:54.601Z,2.03
2018-03-20T14:37:22.120Z,1.97
2018-03-20T14:39:49.659Z,2.30
2018-03-20T14:42:17.165Z,2.30
2018-03-20T14:44:44.679Z,1.97
2018-03-20T14:47:12.183Z,1.60
2018-03-20T14:49:39.689Z,2.10
2018-03-20T14:52:07.189Z,2.17
2018-03-20T14:54:34.708Z,2.00
2018-03-20T14:57:02.231Z,1.70
2018-03-20T14:59:29.725Z,2.10
2018-03-20T15:01:57.230Z,1.83
2018-03-20T15:04:24.737Z,2.10
2018-03-20T15:06:52.263Z,1.77
2018-03-20T15:09:19.852Z,1.70
2018-03-20T15:11:47.337Z,2.10
2018-03-20T15:14:14.824Z,1.70
2018-03-20T15:16:42.401Z,1.97
2018-03-20T15:19:09.908Z,2.00
2018-03-20T15:21:37.562Z,1.83
2018-03-20T15:24:05.088Z,2.17
2018-03-20T15:26:32.585Z,2.00
2018-03-20T15:29:00.080Z,1.93
2018-03-20T15:31:27.557Z,1.77
2018-03-20T15:33:55.061Z,1.90
2018-03-20T15:36:22.583Z,2.00
2018-03-20T15:38:50.098Z,1.70
2018-03-20T15:41:17.598Z,2.07
2018-03-20T15:43:45.196Z,1.90
2018-03-20T15:46:12.677Z,1.70
2018-03-20T15:48:40.179Z,1.90
2018-03-20T15:51:07.706Z,2.00
2018-03-20T15:53:35.203Z,2.03
2018-03-20T15:58:37.085Z,2.03
2018-03-20T16:01:04.594Z,1.70
2018-03-20T16:03:32.165Z,1.70
2018-03-20T16:06:00.359Z,2.43
2018-03-20T16:08:27.892Z,1.63
2018-03-20T16:10:55.394Z,2.10
2018-03-20T16:13:22.916Z,2.23
2018-03-20T16:15:50.518Z,1.87
2018-03-20T16:18:18.386Z,1.93
2018-03-20T16:20:45.965Z,1.90
2018-03-20T16:23:13.491Z,1.80
2018-03-20T16:25:41.034Z,1.97
2018-03-20T16:28:08.571Z,1.87
2018-03-20T16:30:36.118Z,1.80
2018-03-20T16:33:03.631Z,2.00
2018-03-20T16:35:31.142Z,2.10
2018-03-20T16:37:58.652Z,1.63
2018-03-20T16:40:26.187Z,2.00
2018-03-20T16:42:53.679Z,1.80
2018-03-20T16:45:21.232Z,1.90
2018-03-20T16:47:52.319Z,1.97
2018-03-20T16:50:19.817Z,1.60
2018-03-20T16:52:47.324Z,1.77
2018-03-20T16:55:14.811Z,2.20
2018-03-20T16:57:42.717Z,1.60
2018-03-20T17:00:10.268Z,1.90
2018-03-20T17:02:37.833Z,1.83
2018-03-20T17:05:05.926Z,2.07
2018-03-20T17:07:33.701Z,1.93
2018-03-20T17:10:01.202Z,2.03
2018-03-20T17:12:28.742Z,2.03
2018-03-20T17:14:56.280Z,2.27
2018-03-20T17:17:23.844Z,2.30
2018-03-20T17:19:51.397Z,2.03
2018-03-20T17:22:18.996Z,1.80
2018-03-20T17:24:48.239Z,2.10
2018-03-20T17:27:15.965Z,2.20
2018-03-20T17:29:43.492Z,1.80
2018-03-20T17:32:11.002Z,2.07
2018-03-20T17:34:38.622Z,1.93
2018-03-20T17:37:06.154Z,2.20
2018-03-20T17:39:33.873Z,2.07
2018-03-20T17:42:01.392Z,2.17
2018-03-20T17:44:28.950Z,2.20
2018-03-20T17:49:49.783Z,2.10
2018-03-20T17:52:17.324Z,2.23
2018-03-20T17:54:44.865Z,2.27
2018-03-20T17:57:12.367Z,2.20
2018-03-20T17:59:40.509Z,2.03
2018-03-20T18:02:09.326Z,2.50
2018-03-20T18:04:37.600Z,2.43
2018-03-20T18:07:05.164Z,2.40
2018-03-20T18:09:32.706Z,2.50
2018-03-20T18:12:01.213Z,2.27
2018-03-20T18:14:28.764Z,2.47
2018-03-20T18:16:56.369Z,3.23
2018-03-20T18:19:23.871Z,3.13
2018-03-20T18:21:51.732Z,3.47
2018-03-20T18:24:19.279Z,2.70
2018-03-20T18:26:46.826Z,2.40
2018-03-20T18:29:14.400Z,2.50
2018-03-20T18:31:41.988Z,2.73
2018-03-20T18:34:11.507Z,2.07
2018-03-20T18:36:39.016Z,2.53
2018-03-20T18:39:06.574Z,2.40
2018-03-20T18:41:35.279Z,2.30
2018-03-20T18:44:02.822Z,2.30
2018-03-20T18:46:30.377Z,2.90
2018-03-20T18:48:57.904Z,2.37
2018-03-20T18:51:25.435Z,2.17
2018-03-20T18:53:52.981Z,2.30
2018-03-20T18:56:22.154Z,2.30
2018-03-20T18:58:49.762Z,2.23
2018-03-20T19:01:17.284Z,2.67
2018-03-20T19:03:44.789Z,2.40
2018-03-20T19:06:12.297Z,2.90
2018-03-20T19:08:40.095Z,2.70
2018-03-20T19:11:07.619Z,2.47
2018-03-20T19:13:35.118Z,2.47
2018-03-20T19:16:02.726Z,2.50
2018-03-20T19:18:30.221Z,2.10
2018-03-20T19:20:57.781Z,2.20
2018-03-20T19:23:25.926Z,2.93
2018-03-20T19:25:53.524Z,2.50
2018-03-20T19:28:21.451Z,2.80
2018-03-20T19:30:50.366Z,2.70
2018-03-20T19:33:18.032Z,2.33
2018-03-20T19:35:46.606Z,2.27
2018-03-20T19:38:14.181Z,2.70
2018-03-20T19:40:41.725Z,2.67
2018-03-20T19:43:09.217Z,2.70
2018-03-20T19:45:36.711Z,2.60
2018-03-20T19:48:04.201Z,3.10
2018-03-20T19:50:33.035Z,2.97
2018-03-20T19:53:00.564Z,2.83
2018-03-20T19:55:28.216Z,3.30
2018-03-20T19:57:55.714Z,3.10
2018-03-20T20:00:23.241Z,3.10
2018-03-20T20:02:50.917Z,3.00
2018-03-20T20:05:19.090Z,2.90
2018-03-20T20:07:46.945Z,3.37
2018-03-20T20:23:09.640Z,2.87
2018-03-20T20:25:37.888Z,4.27
2018-03-20T20:28:05.593Z,4.17
2018-03-20T20:30:33.355Z,2.97
2018-03-20T20:33:00.934Z,3.23
2018-03-20T20:35:28.556Z,3.33
2018-03-20T20:37:56.156Z,3.00
2018-03-20T20:40:23.779Z,3.53
2018-03-20T20:42:52.342Z,3.00
2018-03-20T20:45:20.925Z,3.07
2018-03-20T20:47:48.637Z,3.43
2018-03-20T20:50:18.296Z,4.03
2018-03-20T20:52:45.904Z,3.50
2018-03-20T20:55:13.759Z,3.33
2018-03-20T20:57:41.585Z,2.97
2018-03-20T21:00:09.108Z,3.40
2018-03-20T21:02:37.213Z,3.27
2018-03-20T21:05:04.772Z,3.40
2018-03-20T21:07:32.375Z,3.13
2018-03-20T21:09:59.915Z,3.87
2018-03-20T21:12:27.466Z,3.60
2018-03-20T21:14:55.070Z,3.90
2018-03-20T21:17:22.611Z,3.20
2018-03-20T21:20:24.908Z,4.20
2018-03-20T21:22:54.350Z,3.70
2018-03-20T21:25:21.932Z,3.30
2018-03-20T21:27:49.626Z,4.23
2018-03-20T21:30:17.177Z,3.87
2018-03-20T21:32:44.732Z,4.40
2018-03-20T21:35:12.495Z,4.00
2018-03-20T21:50:35.127Z,5.07
2018-03-20T21:53:03.893Z,4.30
2018-03-20T21:55:32.145Z,4.37
2018-03-20T21:58:00.007Z,4.50
2018-03-20T22:00:34.632Z,4.97
2018-03-20T22:03:02.236Z,4.83
2018-03-20T22:05:29.857Z,4.67
2018-03-20T22:07:57.459Z,4.33
2018-03-20T22:10:25.067Z,4.67
2018-03-20T22:12:52.583Z,4.93
2018-03-20T22:15:20.163Z,4.60
2018-03-20T22:17:47.675Z,4.50
2018-03-20T22:20:15.212Z,4.90
2018-03-20T22:22:42.746Z,3.70
2018-03-20T22:25:10.295Z,4.77
2018-03-20T22:27:37.952Z,5.00
2018-03-20T22:30:05.548Z,4.80
2018-03-20T22:32:33.101Z,5.30
2018-03-20T22:35:00.655Z,4.27
2018-03-20T22:37:28.329Z,4.70
2018-03-20T22:39:55.880Z,4.60
2018-03-20T22:42:23.441Z,5.13
2018-03-20T22:44:51.087Z,4.77
2018-03-20T22:47:18.704Z,5.07
2018-03-20T22:49:46.249Z,5.00
2018-03-20T22:52:13.906Z,5.20
2018-03-20T22:54:41.407Z,4.73
2018-03-20T22:57:09.188Z,5.10
2018-03-20T22:59:36.848Z,5.30
2018-03-20T23:02:04.487Z,5.03
2018-03-20T23:04:32.040Z,5.20
2018-03-20T23:06:59.663Z,4.33
2018-03-20T23:09:27.261Z,5.20
2018-03-20T23:11:54.789Z,5.13
2018-03-20T23:14:22.358Z,5.03
2018-03-20T23:16:49.914Z,4.30
2018-03-20T23:19:18.085Z,5.77
2018-03-20T23:21:45.714Z,4.77
2018-03-20T23:24:13.237Z,4.73
2018-03-20T23:26:40.818Z,4.53
2018-03-20T23:29:08.528Z,5.37
2018-03-20T23:31:36.170Z,4.97
2018-03-20T23:34:03.726Z,5.07
2018-03-20T23:36:31.287Z,5.33
2018-03-20T23:38:59.069Z,4.93
2018-03-20T23:41:26.712Z,4.90
2018-03-20T23:43:54.989Z,5.20
2018-03-20T23:46:23.433Z,5.40
2018-03-20T23:48:51.499Z,6.20
2018-03-20T23:51:19.107Z,5.33
2018-03-20T23:53:46.785Z,5.17
2018-03-20T23:56:14.549Z,6.60
2018-03-20T23:58:42.335Z,6.03
